createdAt,value
2022-08-03T00:03:34.929Z,18.22
2022-08-03T00:08:37.656Z,18.20
2022-08-03T00:13:42.567Z,18.10
2022-08-03T00:18:44.776Z,18.00
2022-08-03T00:23:51.184Z,18.00
2022-08-03T00:28:54.058Z,17.90
2022-08-03T00:33:59.643Z,17.82
2022-08-03T00:39:05.064Z,17.80
2022-08-03T00:44:06.943Z,17.78
2022-08-03T00:49:08.900Z,17.70
2022-08-03T00:54:11.115Z,17.70
2022-08-03T00:59:15.897Z,17.60
2022-08-03T01:04:17.726Z,17.60
2022-08-03T01:09:49.838Z,17.60
2022-08-03T01:15:05.816Z,17.50
2022-08-03T01:20:13.331Z,17.50
2022-08-03T01:26:10.190Z,17.50
2022-08-03T01:31:18.391Z,17.60
2022-08-03T01:36:24.736Z,17.40
2022-08-03T01:41:33.499Z,17.30
2022-08-03T01:46:37.265Z,17.20
2022-08-03T01:51:58.642Z,17.10
2022-08-03T01:57:07.550Z,17.10
2022-08-03T02:02:27.704Z,17.10
2022-08-03T02:07:39.445Z,17.00
2022-08-03T02:12:46.009Z,16.90
2022-08-03T02:17:50.063Z,16.90
2022-08-03T02:22:52.150Z,16.90
2022-08-03T02:28:13.688Z,16.90
2022-08-03T02:33:28.162Z,16.90
2022-08-03T02:38:38.403Z,16.90
2022-08-03T02:44:00.352Z,16.90
2022-08-03T02:49:40.848Z,16.90
2022-08-03T02:54:30.200Z,17.00
2022-08-03T02:59:32.649Z,17.10
2022-08-03T03:04:36.046Z,17.00
2022-08-03T03:09:40.409Z,17.00
2022-08-03T03:14:45.844Z,16.98
2022-08-03T03:19:51.901Z,16.90
2022-08-03T03:24:55.917Z,16.90
2022-08-03T03:29:58.240Z,17.00
2022-08-03T03:35:01.559Z,17.00
2022-08-03T03:40:04.756Z,17.00
2022-08-03T03:45:08.279Z,17.00
2022-08-03T03:50:10.790Z,17.00
2022-08-03T03:55:17.626Z,17.00
2022-08-03T04:00:19.644Z,17.10
2022-08-03T04:05:44.247Z,17.16
2022-08-03T04:11:14.521Z,17.20
2022-08-03T04:16:21.894Z,17.20
2022-08-03T04:21:25.541Z,17.28
2022-08-03T04:26:33.804Z,17.30
2022-08-03T04:31:38.060Z,17.42
2022-08-03T04:36:49.900Z,17.50
2022-08-03T04:42:07.312Z,17.50
2022-08-03T04:47:10.551Z,17.60
2022-08-03T04:52:13.105Z,17.60
2022-08-03T04:57:22.269Z,17.70
2022-08-03T05:02:25.487Z,17.90
2022-08-03T05:07:36.191Z,18.00
2022-08-03T05:12:39.480Z,18.00
2022-08-03T05:17:41.592Z,18.10
2022-08-03T05:22:43.643Z,18.20
2022-08-03T05:27:45.629Z,18.44
2022-08-03T05:32:47.748Z,18.84
2022-08-03T05:37:54.398Z,19.10
2022-08-03T05:42:57.103Z,19.48
2022-08-03T05:48:00.102Z,19.80
2022-08-03T05:53:02.930Z,20.00
2022-08-03T05:58:05.182Z,20.34
2022-08-03T06:03:07.171Z,20.70
2022-08-03T06:08:09.066Z,20.90
2022-08-03T06:13:11.030Z,21.00
2022-08-03T06:18:13.099Z,21.10
2022-08-03T06:23:15.290Z,21.30
2022-08-03T06:28:51.396Z,21.50
2022-08-03T06:34:30.782Z,21.60
2022-08-03T06:39:04.987Z,21.60
2022-08-03T06:44:06.830Z,21.76
2022-08-03T06:49:08.972Z,22.02
2022-08-03T06:54:12.014Z,22.40
2022-08-03T07:00:10.527Z,22.70
2022-08-03T07:04:35.941Z,23.02
2022-08-03T07:09:37.837Z,23.20
2022-08-03T07:14:39.701Z,23.20
2022-08-03T07:19:41.680Z,23.10
2022-08-03T07:24:44.487Z,23.10
2022-08-03T07:29:46.455Z,23.40
2022-08-03T07:34:48.227Z,23.76
2022-08-03T07:39:50.114Z,24.10
2022-08-03T07:44:51.982Z,24.40
2022-08-03T07:49:54.685Z,24.74
2022-08-03T07:54:56.566Z,25.20
2022-08-03T08:00:02.209Z,25.70
2022-08-03T08:05:06.177Z,26.20
2022-08-03T08:10:10.237Z,26.40
2022-08-03T08:15:12.873Z,26.60
2022-08-03T08:20:31.722Z,26.70
2022-08-03T08:25:34.860Z,26.90
2022-08-03T08:30:36.753Z,27.00
2022-08-03T08:35:38.717Z,27.00
2022-08-03T08:40:41.002Z,27.10
2022-08-03T08:45:44.991Z,27.20
2022-08-03T08:50:48.142Z,27.30
2022-08-03T08:55:56.952Z,27.40
2022-08-03T09:01:02.823Z,27.50
2022-08-03T09:06:05.135Z,27.76
2022-08-03T09:11:07.459Z,27.92
2022-08-03T09:16:20.576Z,28.10
2022-08-03T09:21:32.792Z,28.40
2022-08-03T09:26:38.056Z,28.60
2022-08-03T09:31:46.110Z,28.70
2022-08-03T09:36:53.492Z,28.72
2022-08-03T09:42:07.091Z,29.00
2022-08-03T09:47:16.186Z,29.30
2022-08-03T09:52:38.613Z,29.40
2022-08-03T09:57:45.937Z,29.76
2022-08-03T10:02:50.264Z,30.00
2022-08-03T10:07:52.135Z,30.20
2022-08-03T10:12:54.257Z,30.20
2022-08-03T10:17:56.968Z,30.30
2022-08-03T10:23:00.124Z,30.34
2022-08-03T10:28:04.394Z,30.20
2022-08-03T10:33:49.744Z,30.60
2022-08-03T10:38:57.570Z,30.80
2022-08-03T10:44:09.229Z,30.80
2022-08-03T10:49:21.439Z,30.70
2022-08-03T10:54:36.901Z,30.90
2022-08-03T10:59:50.652Z,31.20
2022-08-03T11:05:34.619Z,30.90
2022-08-03T11:10:38.235Z,30.70
2022-08-03T11:15:45.700Z,30.80
2022-08-03T11:20:57.409Z,31.20
2022-08-03T11:26:19.086Z,31.30
2022-08-03T11:31:48.755Z,31.40
2022-08-03T11:37:25.223Z,31.70
2022-08-03T11:42:29.243Z,32.40
2022-08-03T11:47:31.116Z,32.66
2022-08-03T11:52:39.948Z,32.92
2022-08-03T11:59:02.706Z,33.48
2022-08-03T12:03:13.656Z,33.88
2022-08-03T12:08:27.898Z,34.10
2022-08-03T12:14:45.437Z,34.30
2022-08-03T12:19:12.900Z,34.10
2022-08-03T12:24:15.409Z,34.00
2022-08-03T12:29:22.744Z,34.36
2022-08-03T12:34:47.020Z,34.70
2022-08-03T12:40:01.722Z,34.98
2022-08-03T12:45:28.543Z,34.60
2022-08-03T12:50:37.094Z,34.80
2022-08-03T12:56:04.729Z,35.22
2022-08-03T13:01:09.517Z,36.00
2022-08-03T13:06:19.908Z,36.20
2022-08-03T13:11:57.341Z,36.30
2022-08-03T13:16:49.751Z,36.60
2022-08-03T13:22:03.071Z,37.00
2022-08-03T13:27:59.417Z,37.30
2022-08-03T13:32:29.781Z,37.30
2022-08-03T13:37:32.112Z,37.10
2022-08-03T13:42:35.967Z,37.06
2022-08-03T13:47:37.899Z,37.50
2022-08-03T13:52:39.738Z,37.80
2022-08-03T13:58:04.905Z,37.50
2022-08-03T14:03:17.598Z,37.00
2022-08-03T14:08:19.577Z,36.92
2022-08-03T14:13:22.275Z,37.20
2022-08-03T14:18:28.346Z,38.02
2022-08-03T14:23:39.373Z,38.50
2022-08-03T14:28:41.533Z,38.90
2022-08-03T14:33:43.712Z,38.90
2022-08-03T14:38:46.013Z,38.90
2022-08-03T14:44:01.643Z,38.90
2022-08-03T14:50:36.977Z,38.90
2022-08-03T14:54:30.540Z,38.98
2022-08-03T14:59:56.207Z,38.80
2022-08-03T15:04:54.471Z,39.12
2022-08-03T15:09:56.452Z,39.50
2022-08-03T15:14:58.322Z,39.74
2022-08-03T15:20:26.504Z,40.10
2022-08-03T15:26:30.239Z,40.08
2022-08-03T15:30:44.095Z,39.80
2022-08-03T15:35:47.104Z,39.70
2022-08-03T15:40:49.082Z,39.92
2022-08-03T15:46:18.972Z,40.10
2022-08-03T15:51:13.825Z,40.08
2022-08-03T15:56:18.717Z,40.20
2022-08-03T16:01:24.731Z,40.10
2022-08-03T16:06:29.797Z,39.68
2022-08-03T16:11:37.833Z,39.54
2022-08-03T16:16:40.729Z,39.80
2022-08-03T16:21:48.394Z,39.80
2022-08-03T16:26:50.931Z,39.90
2022-08-03T16:31:53.011Z,39.60
2022-08-03T16:36:55.017Z,39.00
2022-08-03T16:42:00.927Z,38.10
2022-08-03T16:47:04.300Z,37.60
2022-08-03T16:52:07.319Z,37.50
2022-08-03T16:57:09.484Z,37.20
2022-08-03T17:02:26.147Z,37.48
2022-08-03T17:07:29.701Z,37.60
2022-08-03T17:12:32.404Z,37.50
2022-08-03T17:17:53.547Z,37.40
2022-08-03T17:23:33.862Z,37.20
2022-08-03T17:28:56.469Z,36.80
2022-08-03T17:34:04.625Z,36.40
2022-08-03T17:39:09.025Z,36.02
2022-08-03T17:44:15.308Z,35.76
2022-08-03T17:49:23.764Z,35.00
2022-08-03T17:55:56.042Z,34.60
2022-08-03T18:01:04.789Z,34.04
2022-08-03T18:06:34.936Z,33.44
2022-08-03T18:11:45.293Z,32.88
2022-08-03T18:16:57.525Z,32.50
2022-08-03T18:22:04.466Z,32.10
2022-08-03T18:27:10.216Z,31.88
2022-08-03T18:32:16.912Z,31.70
2022-08-03T18:37:26.013Z,31.60
2022-08-03T18:42:28.286Z,31.30
2022-08-03T18:47:56.721Z,30.90
2022-08-03T18:54:02.309Z,30.50
2022-08-03T18:59:30.125Z,30.14
2022-08-03T19:04:38.718Z,29.80
2022-08-03T19:10:05.746Z,29.50
2022-08-03T19:15:13.240Z,29.20
2022-08-03T19:20:20.612Z,28.90
2022-08-03T19:25:34.467Z,28.60
2022-08-03T19:30:39.528Z,28.40
2022-08-03T19:35:55.795Z,28.10
2022-08-03T19:41:05.233Z,27.90
2022-08-03T19:46:13.583Z,27.60
2022-08-03T19:51:16.620Z,27.42
2022-08-03T19:56:23.679Z,27.10
2022-08-03T20:01:28.944Z,26.80
2022-08-03T20:06:31.666Z,26.40
2022-08-03T20:11:43.910Z,26.10
2022-08-03T20:16:48.821Z,25.90
2022-08-03T20:21:54.376Z,25.70
2022-08-03T20:27:05.196Z,25.50
2022-08-03T20:32:10.015Z,25.40
2022-08-03T20:37:12.291Z,25.30
2022-08-03T20:42:14.303Z,25.20
2022-08-03T20:47:24.692Z,24.90
2022-08-03T20:52:29.042Z,24.60
2022-08-03T20:57:33.183Z,24.40
2022-08-03T21:02:35.966Z,24.00
2022-08-03T21:07:45.721Z,23.80
2022-08-03T21:13:23.198Z,23.66
2022-08-03T21:18:27.631Z,23.50
2022-08-03T21:23:47.558Z,23.40
2022-08-03T21:28:55.881Z,23.30
2022-08-03T21:34:04.706Z,23.20
2022-08-03T21:39:10.439Z,23.00
2022-08-03T21:44:12.548Z,22.70
2022-08-03T21:50:05.268Z,22.30
2022-08-03T21:54:41.760Z,22.00
2022-08-03T21:59:56.679Z,22.10
2022-08-03T22:04:58.907Z,22.00
2022-08-03T22:10:06.074Z,21.94
2022-08-03T22:15:11.880Z,21.80
2022-08-03T22:20:14.912Z,21.70
2022-08-03T22:25:17.041Z,21.50
2022-08-03T22:30:20.172Z,21.28
2022-08-03T22:35:25.389Z,21.00
2022-08-03T22:40:28.292Z,20.80
2022-08-03T22:46:09.888Z,20.70
2022-08-03T22:50:52.929Z,20.80
2022-08-03T22:55:56.264Z,20.70
2022-08-03T23:01:05.690Z,20.40
2022-08-03T23:06:09.335Z,20.30
2022-08-03T23:11:12.315Z,20.20
2022-08-03T23:16:27.956Z,20.30
2022-08-03T23:21:53.198Z,20.40
2022-08-03T23:26:56.765Z,20.40
2022-08-03T23:32:01.821Z,20.30
2022-08-03T23:37:05.637Z,20.10
2022-08-03T23:42:09.626Z,19.70
2022-08-03T23:47:13.675Z,19.50
2022-08-03T23:52:57.399Z,19.38
2022-08-03T23:58:12.148Z,19.40
